createdAt,value
2019-03-30T00:00:02.797Z,89.80
2019-03-30T00:02:31.535Z,89.86
2019-03-30T00:05:00.286Z,89.48
2019-03-30T00:07:29.033Z,89.94
2019-03-30T00:09:57.805Z,90.64
2019-03-30T00:12:26.546Z,90.81
2019-03-30T00:14:55.308Z,90.85
2019-03-30T00:17:24.056Z,90.81
2019-03-30T00:19:52.923Z,90.97
2019-03-30T00:22:21.747Z,90.69
2019-03-30T00:24:50.512Z,90.34
2019-03-30T00:27:19.302Z,89.81
2019-03-30T00:29:48.037Z,89.46
2019-03-30T00:32:16.929Z,89.56
2019-03-30T00:34:45.647Z,89.93
2019-03-30T00:37:14.380Z,90.87
2019-03-30T00:39:43.150Z,90.59
2019-03-30T00:42:11.925Z,90.54
2019-03-30T00:44:40.887Z,91.10
2019-03-30T00:47:09.634Z,91.36
2019-03-30T00:49:48.478Z,91.51
2019-03-30T00:52:08.929Z,92.00
2019-03-30T00:54:37.677Z,92.36
2019-03-30T00:57:06.431Z,93.37
2019-03-30T00:59:35.200Z,93.44
2019-03-30T01:02:03.989Z,93.91
2019-03-30T01:04:32.722Z,93.45
2019-03-30T01:07:01.474Z,93.68
2019-03-30T01:09:30.225Z,93.21
2019-03-30T01:11:58.981Z,93.15
2019-03-30T01:14:27.748Z,93.63
2019-03-30T01:16:56.675Z,93.90
2019-03-30T01:19:25.424Z,94.81
2019-03-30T01:21:56.239Z,95.38
2019-03-30T01:24:24.707Z,96.06
2019-03-30T01:26:53.514Z,95.42
2019-03-30T01:29:22.293Z,94.40
2019-03-30T01:31:51.050Z,94.36
2019-03-30T01:34:19.857Z,94.28
2019-03-30T01:36:48.596Z,94.26
2019-03-30T01:39:17.344Z,94.18
2019-03-30T01:41:46.100Z,94.12
2019-03-30T01:44:14.859Z,94.01
2019-03-30T01:46:43.622Z,94.21
2019-03-30T01:49:12.609Z,94.38
2019-03-30T01:51:41.355Z,94.62
2019-03-30T01:54:10.115Z,95.03
2019-03-30T01:56:38.887Z,94.68
2019-03-30T01:59:07.710Z,94.86
2019-03-30T02:01:36.578Z,94.61
2019-03-30T02:04:05.316Z,94.46
2019-03-30T02:06:34.054Z,94.49
2019-03-30T02:09:02.830Z,95.33
2019-03-30T02:11:31.589Z,94.92
2019-03-30T02:14:00.365Z,95.47
2019-03-30T02:16:29.107Z,95.80
2019-03-30T02:18:57.863Z,95.82
2019-03-30T02:21:26.610Z,95.44
2019-03-30T02:23:55.377Z,95.26
2019-03-30T02:26:24.105Z,95.67
2019-03-30T02:28:52.873Z,95.87
2019-03-30T02:31:21.676Z,95.72
2019-03-30T02:33:50.407Z,95.88
2019-03-30T02:36:19.194Z,95.99
2019-03-30T02:38:48.011Z,96.03
2019-03-30T02:41:16.776Z,95.65
2019-03-30T02:43:45.517Z,95.21
2019-03-30T02:46:14.315Z,95.59
2019-03-30T02:48:43.052Z,96.25
2019-03-30T02:51:11.840Z,96.61
2019-03-30T02:53:40.614Z,96.68
2019-03-30T02:56:09.360Z,97.12
2019-03-30T02:58:38.085Z,97.33
2019-03-30T03:01:06.852Z,96.91
2019-03-30T03:03:35.714Z,96.29
2019-03-30T03:06:04.462Z,96.75
2019-03-30T03:08:33.313Z,96.81
2019-03-30T03:11:02.104Z,97.27
2019-03-30T03:13:30.884Z,97.25
2019-03-30T03:15:59.650Z,97.34
2019-03-30T03:18:28.422Z,97.52
2019-03-30T03:21:07.483Z,97.60
2019-03-30T03:23:27.693Z,97.90
2019-03-30T03:25:56.449Z,97.94
2019-03-30T03:28:25.209Z,97.94
2019-03-30T03:30:53.992Z,97.76
2019-03-30T03:33:22.794Z,97.66
2019-03-30T03:35:51.522Z,97.40
2019-03-30T03:38:20.280Z,97.87
2019-03-30T03:40:49.008Z,97.99
2019-03-30T03:43:17.768Z,97.88
2019-03-30T03:45:46.498Z,97.56
2019-03-30T03:48:15.273Z,97.55
2019-03-30T03:50:45.780Z,97.51
2019-03-30T03:53:17.123Z,97.13
2019-03-30T03:55:46.171Z,97.66
2019-03-30T03:58:17.200Z,97.96
2019-03-30T04:00:47.727Z,97.71
2019-03-30T04:03:18.025Z,97.42
2019-03-30T04:05:49.814Z,97.50
2019-03-30T04:08:18.582Z,97.31
2019-03-30T04:10:48.804Z,97.43
2019-03-30T04:13:17.542Z,97.38
2019-03-30T04:15:46.407Z,96.76
2019-03-30T04:18:15.152Z,96.93
2019-03-30T04:20:43.983Z,96.61
2019-03-30T04:23:13.002Z,96.57
2019-03-30T04:25:41.738Z,96.92
2019-03-30T04:28:10.636Z,97.12
2019-03-30T04:30:39.360Z,96.98
2019-03-30T04:33:08.089Z,97.19
2019-03-30T04:35:36.849Z,97.49
2019-03-30T04:38:05.609Z,97.67
2019-03-30T04:40:34.348Z,97.79
2019-03-30T04:43:03.100Z,97.79
2019-03-30T04:45:31.827Z,97.87
2019-03-30T04:48:00.697Z,97.53
2019-03-30T04:50:29.428Z,97.60
2019-03-30T04:52:58.153Z,97.79
2019-03-30T04:55:26.926Z,97.79
2019-03-30T04:57:57.821Z,97.75
2019-03-30T05:00:26.214Z,97.55
2019-03-30T05:02:57.160Z,97.53
2019-03-30T05:05:26.083Z,97.78
2019-03-30T05:07:54.948Z,98.16
2019-03-30T05:10:23.683Z,98.73
2019-03-30T05:12:52.825Z,98.92
2019-03-30T05:15:21.591Z,98.69
2019-03-30T05:17:50.384Z,98.76
2019-03-30T05:20:19.131Z,98.49
2019-03-30T05:22:51.103Z,98.61
2019-03-30T05:25:18.346Z,98.76
2019-03-30T05:27:47.086Z,98.51
2019-03-30T05:30:15.960Z,98.36
2019-03-30T05:32:44.703Z,98.29
2019-03-30T05:35:13.482Z,97.72
2019-03-30T05:37:42.217Z,96.65
2019-03-30T05:40:19.060Z,94.18
2019-03-30T05:42:48.122Z,92.65
2019-03-30T05:45:16.876Z,92.12
2019-03-30T05:47:45.617Z,89.85
2019-03-30T05:50:15.856Z,88.21
2019-03-30T05:52:44.620Z,86.96
2019-03-30T05:55:13.492Z,86.54
2019-03-30T05:57:44.621Z,82.87
2019-03-30T06:00:15.933Z,81.87
2019-03-30T06:02:45.587Z,77.97
2019-03-30T06:05:14.349Z,76.92
2019-03-30T06:07:43.113Z,75.60
2019-03-30T06:10:11.985Z,74.12
2019-03-30T06:12:40.732Z,73.14
2019-03-30T06:15:09.650Z,72.22
2019-03-30T06:17:38.427Z,74.21
2019-03-30T06:20:09.853Z,74.66
2019-03-30T06:22:40.408Z,75.40
2019-03-30T06:25:10.831Z,76.13
2019-03-30T06:27:39.679Z,76.33
2019-03-30T06:30:28.361Z,75.88
2019-03-30T06:32:57.167Z,75.53
2019-03-30T06:35:26.080Z,74.14
2019-03-30T06:37:54.929Z,74.18
2019-03-30T06:40:23.675Z,71.58
2019-03-30T06:42:52.334Z,69.03
2019-03-30T06:45:21.121Z,69.04
2019-03-30T06:47:49.919Z,67.20
2019-03-30T06:50:18.714Z,66.94
2019-03-30T06:52:57.540Z,65.29
2019-03-30T06:55:18.026Z,66.42
2019-03-30T06:57:46.772Z,65.08
2019-03-30T07:00:17.290Z,63.36
2019-03-30T07:02:46.866Z,60.84
2019-03-30T07:05:15.700Z,61.69
2019-03-30T07:07:45.937Z,69.18
2019-03-30T07:10:15.989Z,67.34
2019-03-30T07:12:47.696Z,70.88
2019-03-30T07:15:16.449Z,69.34
2019-03-30T07:17:48.884Z,67.33
2019-03-30T07:20:29.194Z,64.50
2019-03-30T07:23:11.250Z,61.75
2019-03-30T07:25:29.356Z,61.40
2019-03-30T07:27:58.090Z,62.95
2019-03-30T07:30:26.863Z,64.24
2019-03-30T07:32:55.603Z,64.01
2019-03-30T07:35:24.472Z,65.67
2019-03-30T07:37:55.150Z,63.20
2019-03-30T07:40:26.674Z,64.33
2019-03-30T07:42:55.445Z,64.62
2019-03-30T07:45:24.193Z,67.15
2019-03-30T07:47:53.315Z,66.70
2019-03-30T07:50:22.051Z,66.07
2019-03-30T07:52:50.809Z,66.16
2019-03-30T07:55:20.587Z,64.88
2019-03-30T07:57:49.847Z,67.12
2019-03-30T08:00:20.075Z,66.15
2019-03-30T08:02:48.845Z,62.74
2019-03-30T08:05:17.612Z,64.35
2019-03-30T08:07:46.347Z,61.09
2019-03-30T08:10:17.531Z,61.82
2019-03-30T08:12:49.182Z,63.98
2019-03-30T08:15:22.646Z,62.63
2019-03-30T08:17:57.871Z,61.11
2019-03-30T08:20:35.645Z,59.53
2019-03-30T08:23:05.857Z,60.23
2019-03-30T08:25:34.739Z,59.07
2019-03-30T08:28:03.558Z,60.78
2019-03-30T08:30:32.340Z,61.31
2019-03-30T08:33:02.509Z,59.63
2019-03-30T08:35:31.309Z,60.96
2019-03-30T08:38:00.119Z,56.92
2019-03-30T08:40:45.302Z,57.95
2019-03-30T08:43:14.398Z,57.54
2019-03-30T08:45:43.187Z,57.97
2019-03-30T08:48:13.200Z,57.38
2019-03-30T08:50:41.986Z,56.40
2019-03-30T08:53:10.903Z,54.12
2019-03-30T08:55:39.661Z,54.19
2019-03-30T08:58:08.631Z,53.99
2019-03-30T09:00:42.481Z,50.47
2019-03-30T09:03:11.369Z,51.45
2019-03-30T09:05:40.271Z,51.70
2019-03-30T09:08:09.071Z,49.95
2019-03-30T09:10:37.844Z,53.27
2019-03-30T09:13:06.691Z,54.68
2019-03-30T09:15:35.527Z,52.64
2019-03-30T09:18:04.463Z,54.51
2019-03-30T09:20:33.327Z,50.59
2019-03-30T09:23:02.228Z,50.36
2019-03-30T09:25:31.340Z,50.20
2019-03-30T09:28:00.242Z,46.99
2019-03-30T09:30:29.012Z,49.31
2019-03-30T09:32:57.929Z,47.42
2019-03-30T09:35:26.849Z,49.25
2019-03-30T09:37:55.630Z,49.64
2019-03-30T09:40:24.371Z,47.27
2019-03-30T09:42:53.144Z,46.67
2019-03-30T09:45:21.935Z,47.35
2019-03-30T09:47:50.698Z,46.39
2019-03-30T09:50:19.469Z,49.26
2019-03-30T09:52:48.365Z,46.45
2019-03-30T09:55:17.105Z,47.51
2019-03-30T09:57:45.845Z,47.58
2019-03-30T10:00:14.717Z,47.44
2019-03-30T10:02:43.890Z,46.86
2019-03-30T10:05:12.786Z,44.62
2019-03-30T10:07:41.545Z,45.19
2019-03-30T10:10:12.910Z,48.01
2019-03-30T10:12:41.763Z,45.98
2019-03-30T10:15:11.884Z,47.91
2019-03-30T10:17:40.733Z,46.04
2019-03-30T10:20:11.213Z,45.80
2019-03-30T10:22:42.129Z,47.40
2019-03-30T10:25:10.893Z,44.19
2019-03-30T10:27:40.707Z,44.79
2019-03-30T10:30:11.935Z,46.20
2019-03-30T10:32:40.969Z,46.07
2019-03-30T10:35:09.749Z,45.50
2019-03-30T10:37:38.502Z,47.94
2019-03-30T10:40:10.171Z,46.24
2019-03-30T10:42:38.937Z,47.03
2019-03-30T10:45:09.136Z,43.95
2019-03-30T10:47:37.896Z,42.79
2019-03-30T10:50:10.016Z,43.81
2019-03-30T10:52:38.784Z,43.74
2019-03-30T10:55:07.517Z,44.61
2019-03-30T10:57:36.471Z,46.49
2019-03-30T11:00:09.122Z,45.77
2019-03-30T11:02:39.784Z,45.99
2019-03-30T11:05:09.998Z,45.27
2019-03-30T11:07:38.852Z,46.71
2019-03-30T11:10:08.167Z,49.34
2019-03-30T11:12:36.935Z,46.66
2019-03-30T11:15:07.288Z,46.06
2019-03-30T11:17:37.163Z,44.99
2019-03-30T11:20:06.632Z,47.17
2019-03-30T11:22:35.606Z,44.89
2019-03-30T11:25:07.629Z,45.37
2019-03-30T11:27:36.110Z,43.88
2019-03-30T11:30:07.174Z,44.76
2019-03-30T11:32:38.516Z,43.36
2019-03-30T11:35:08.739Z,46.57
2019-03-30T11:37:37.567Z,44.23
2019-03-30T11:40:08.142Z,42.51
2019-03-30T11:42:37.050Z,41.66
2019-03-30T11:45:07.506Z,43.92
2019-03-30T11:47:37.242Z,44.74
2019-03-30T11:50:08.542Z,46.33
2019-03-30T11:52:39.256Z,45.48
2019-03-30T11:55:21.069Z,44.02
2019-03-30T11:57:39.344Z,40.69
2019-03-30T12:00:09.776Z,43.14
2019-03-30T12:02:38.544Z,43.92
2019-03-30T12:05:08.690Z,43.68
2019-03-30T12:07:39.275Z,41.81
2019-03-30T12:10:09.105Z,43.04
2019-03-30T12:12:37.859Z,44.47
2019-03-30T12:15:10.217Z,44.53
2019-03-30T12:17:41.234Z,43.62
2019-03-30T12:20:11.376Z,43.15
2019-03-30T12:22:40.519Z,43.28
2019-03-30T12:25:09.400Z,44.11
2019-03-30T12:27:38.210Z,42.00
2019-03-30T12:30:08.608Z,42.16
2019-03-30T12:32:37.435Z,41.03
2019-03-30T12:35:07.777Z,42.27
2019-03-30T12:37:36.736Z,41.69
2019-03-30T12:40:07.580Z,43.36
2019-03-30T12:42:36.437Z,43.17
2019-03-30T12:45:07.638Z,41.85
2019-03-30T12:47:36.406Z,40.93
2019-03-30T12:50:07.039Z,39.71
2019-03-30T12:52:35.789Z,40.22
2019-03-30T12:55:05.355Z,41.21
2019-03-30T12:57:34.244Z,42.00
2019-03-30T13:00:03.639Z,41.15
2019-03-30T13:02:32.545Z,41.30
2019-03-30T13:05:01.464Z,40.57
2019-03-30T13:07:30.255Z,40.16
2019-03-30T13:09:59.061Z,39.08
2019-03-30T13:12:27.802Z,40.56
2019-03-30T13:14:56.598Z,40.17
2019-03-30T13:17:25.419Z,40.49
2019-03-30T13:19:54.490Z,39.46
2019-03-30T13:22:23.236Z,40.37
2019-03-30T13:24:52.067Z,42.18
2019-03-30T13:27:20.832Z,41.70
2019-03-30T13:29:49.575Z,42.85
2019-03-30T13:32:18.347Z,40.97
2019-03-30T13:34:47.231Z,40.66
2019-03-30T13:37:21.287Z,40.76
2019-03-30T13:39:50.066Z,41.49
2019-03-30T13:42:18.846Z,39.69
2019-03-30T13:44:47.673Z,39.95
2019-03-30T13:47:16.444Z,43.01
2019-03-30T13:49:45.250Z,44.12
2019-03-30T13:52:14.056Z,44.87
2019-03-30T13:54:43.000Z,45.46
2019-03-30T13:57:11.741Z,43.60
2019-03-30T13:59:40.501Z,45.21
2019-03-30T14:02:09.280Z,45.36
2019-03-30T14:04:38.028Z,46.63
2019-03-30T14:07:06.848Z,44.97
2019-03-30T14:09:35.608Z,45.34
2019-03-30T14:12:05.388Z,45.12
2019-03-30T14:14:34.250Z,46.95
2019-03-30T14:17:03.031Z,46.98
2019-03-30T14:19:31.854Z,44.82
2019-03-30T14:22:00.624Z,44.82
2019-03-30T14:24:29.402Z,46.66
2019-03-30T14:26:58.221Z,45.42
2019-03-30T14:29:27.089Z,43.48
2019-03-30T14:31:55.898Z,43.06
2019-03-30T14:34:24.629Z,40.63
2019-03-30T14:36:53.404Z,42.35
2019-03-30T14:39:22.224Z,43.65
2019-03-30T14:41:51.184Z,42.76
2019-03-30T14:44:19.930Z,41.93
2019-03-30T14:46:48.845Z,40.96
2019-03-30T14:49:17.660Z,43.69
2019-03-30T14:51:46.417Z,42.01
2019-03-30T14:54:15.223Z,41.88
2019-03-30T14:56:45.850Z,42.48
2019-03-30T14:59:14.852Z,41.38
2019-03-30T15:01:43.594Z,39.82
2019-03-30T15:04:12.622Z,41.28
2019-03-30T15:06:41.412Z,40.55
2019-03-30T15:09:10.234Z,40.13
2019-03-30T15:11:39.033Z,40.41
2019-03-30T15:14:07.783Z,39.43
2019-03-30T15:16:36.519Z,40.83
2019-03-30T15:19:05.474Z,42.80
2019-03-30T15:21:34.320Z,42.68
2019-03-30T15:24:03.126Z,41.75
2019-03-30T15:26:31.892Z,42.29
2019-03-30T15:29:00.661Z,42.56
2019-03-30T15:31:29.453Z,43.49
2019-03-30T15:33:58.193Z,42.21
2019-03-30T15:36:26.936Z,44.31
2019-03-30T15:38:55.698Z,48.31
2019-03-30T15:41:24.500Z,48.88
2019-03-30T15:43:53.282Z,49.82
2019-03-30T15:46:22.026Z,50.78
2019-03-30T15:48:50.924Z,50.78
2019-03-30T15:51:19.675Z,50.76
2019-03-30T15:53:48.414Z,50.10
2019-03-30T15:56:17.227Z,49.83
2019-03-30T15:58:45.966Z,50.77
2019-03-30T16:01:14.766Z,48.80
2019-03-30T16:03:43.544Z,47.61
2019-03-30T16:06:12.320Z,47.36
2019-03-30T16:08:41.192Z,47.13
2019-03-30T16:11:09.973Z,47.08
2019-03-30T16:13:39.317Z,48.46
2019-03-30T16:16:08.185Z,48.66
2019-03-30T16:18:36.929Z,48.76
2019-03-30T16:21:05.668Z,49.12
2019-03-30T16:23:34.442Z,50.46
2019-03-30T16:26:03.300Z,50.84
2019-03-30T16:28:32.087Z,51.06
2019-03-30T16:31:00.824Z,50.91
2019-03-30T16:33:29.986Z,50.33
2019-03-30T16:36:02.417Z,48.78
2019-03-30T16:38:29.451Z,49.06
2019-03-30T16:40:58.303Z,49.06
2019-03-30T16:43:27.132Z,49.28
2019-03-30T16:45:55.903Z,49.35
2019-03-30T16:48:24.689Z,50.61
2019-03-30T16:50:53.514Z,50.20
2019-03-30T16:53:22.347Z,50.91
2019-03-30T16:55:51.146Z,51.13
2019-03-30T16:58:20.028Z,51.76
2019-03-30T17:00:56.416Z,52.14
2019-03-30T17:03:23.085Z,52.55
2019-03-30T17:05:52.978Z,52.85
2019-03-30T17:08:26.670Z,53.71
2019-03-30T17:10:56.090Z,53.82
2019-03-30T17:13:24.917Z,54.07
2019-03-30T17:15:53.734Z,55.24
2019-03-30T17:18:22.490Z,55.08
2019-03-30T17:20:51.274Z,55.56
2019-03-30T17:23:20.355Z,55.27
2019-03-30T17:25:50.003Z,55.43
2019-03-30T17:28:18.777Z,56.02
2019-03-30T17:30:47.531Z,56.51
2019-03-30T17:33:16.278Z,57.19
2019-03-30T17:35:45.038Z,57.00
2019-03-30T17:38:13.981Z,58.19
2019-03-30T17:40:42.760Z,59.12
2019-03-30T17:43:11.619Z,58.87
2019-03-30T17:45:40.383Z,59.46
2019-03-30T17:48:09.200Z,59.91
2019-03-30T17:50:38.029Z,59.84
2019-03-30T17:53:06.861Z,60.92
2019-03-30T17:55:35.907Z,60.62
2019-03-30T17:58:12.831Z,61.65
2019-03-30T18:00:35.944Z,61.96
2019-03-30T18:03:05.442Z,61.86
2019-03-30T18:05:34.207Z,61.94
2019-03-30T18:08:03.069Z,62.15
2019-03-30T18:10:31.986Z,62.19
2019-03-30T18:13:00.787Z,62.29
2019-03-30T18:15:29.589Z,63.00
2019-03-30T18:17:58.443Z,63.15
2019-03-30T18:20:27.232Z,63.24
2019-03-30T18:22:56.003Z,63.97
2019-03-30T18:25:24.754Z,63.92
2019-03-30T18:27:53.590Z,64.52
2019-03-30T18:30:31.033Z,64.68
2019-03-30T18:33:00.079Z,65.11
2019-03-30T18:35:30.590Z,64.94
2019-03-30T18:38:01.566Z,64.80
2019-03-30T18:40:36.002Z,64.86
2019-03-30T18:43:05.347Z,65.15
2019-03-30T18:45:34.195Z,65.75
2019-03-30T18:48:19.014Z,65.92
2019-03-30T18:50:48.877Z,66.02
2019-03-30T18:53:18.328Z,66.34
2019-03-30T18:55:47.071Z,66.98
2019-03-30T18:58:15.972Z,67.03
2019-03-30T19:00:44.802Z,66.43
2019-03-30T19:03:13.484Z,66.41
2019-03-30T19:05:42.366Z,66.31
2019-03-30T19:08:11.024Z,66.28
2019-03-30T19:10:39.756Z,67.03
2019-03-30T19:13:08.526Z,66.94
2019-03-30T19:15:37.290Z,66.72
2019-03-30T19:18:06.063Z,67.19
2019-03-30T19:20:34.838Z,67.50
2019-03-30T19:23:03.713Z,66.91
2019-03-30T19:25:32.470Z,67.44
2019-03-30T19:28:14.503Z,68.04
2019-03-30T19:30:52.297Z,68.42
2019-03-30T19:33:21.407Z,68.41
2019-03-30T19:35:50.307Z,69.17
2019-03-30T19:38:19.161Z,68.97
2019-03-30T19:40:58.721Z,69.20
2019-03-30T19:46:14.957Z,69.31
2019-03-30T19:48:52.429Z,69.06
2019-03-30T19:51:28.608Z,68.98
2019-03-30T19:54:09.544Z,69.22
2019-03-30T19:56:39.045Z,69.83
2019-03-30T19:59:11.137Z,69.83
2019-03-30T20:01:38.911Z,69.80
2019-03-30T20:04:08.049Z,70.11
2019-03-30T20:06:37.086Z,70.30
2019-03-30T20:09:09.615Z,70.74
2019-03-30T20:11:38.587Z,71.17
2019-03-30T20:14:08.049Z,71.16
2019-03-30T20:16:36.872Z,71.50
2019-03-30T20:19:12.793Z,71.73
2019-03-30T20:21:36.788Z,72.07
2019-03-30T20:24:05.659Z,72.22
2019-03-30T20:26:34.938Z,72.17
2019-03-30T20:29:05.217Z,72.44
2019-03-30T20:31:34.335Z,72.85
2019-03-30T20:34:03.408Z,73.01
2019-03-30T20:36:35.090Z,73.17
2019-03-30T20:39:03.839Z,73.34
2019-03-30T20:41:33.275Z,73.70
2019-03-30T20:44:02.346Z,73.76
2019-03-30T20:46:31.306Z,74.07
2019-03-30T20:49:00.261Z,74.06
2019-03-30T20:51:29.058Z,73.95
2019-03-30T20:53:58.221Z,74.10
2019-03-30T20:56:27.066Z,74.16
2019-03-30T20:58:56.075Z,74.96
2019-03-30T21:01:24.883Z,74.87
2019-03-30T21:03:54.047Z,74.91
2019-03-30T21:06:22.809Z,74.80
2019-03-30T21:08:51.741Z,74.82
2019-03-30T21:11:21.120Z,75.28
2019-03-30T21:13:50.123Z,74.91
2019-03-30T21:16:19.168Z,75.54
2019-03-30T21:18:48.250Z,76.51
2019-03-30T21:21:17.376Z,77.14
2019-03-30T21:23:46.386Z,77.74
2019-03-30T21:26:15.244Z,78.45
2019-03-30T21:28:44.042Z,78.58
2019-03-30T21:31:12.780Z,77.29
2019-03-30T21:33:41.505Z,78.67
2019-03-30T21:36:10.348Z,79.89
2019-03-30T21:38:39.107Z,80.23
2019-03-30T21:41:08.440Z,80.42
2019-03-30T21:43:37.283Z,80.59
2019-03-30T21:46:06.085Z,80.57
2019-03-30T21:48:35.053Z,81.07
2019-03-30T21:51:03.908Z,81.08
2019-03-30T21:53:33.112Z,82.05
2019-03-30T21:56:02.472Z,82.28
2019-03-30T21:58:31.239Z,82.42
2019-03-30T22:01:02.922Z,82.52
2019-03-30T22:03:32.796Z,83.29
2019-03-30T22:06:01.531Z,82.98
2019-03-30T22:08:30.274Z,82.42
2019-03-30T22:10:59.040Z,82.78
2019-03-30T22:13:27.774Z,83.29
2019-03-30T22:15:56.540Z,82.80
2019-03-30T22:18:25.281Z,83.06
2019-03-30T22:20:54.050Z,81.47
2019-03-30T22:23:22.884Z,82.34
2019-03-30T22:25:51.880Z,82.91
2019-03-30T22:28:20.819Z,83.47
2019-03-30T22:30:49.899Z,84.02
2019-03-30T22:33:18.704Z,84.37
2019-03-30T22:35:47.487Z,84.41
2019-03-30T22:38:16.343Z,84.96
2019-03-30T22:40:45.175Z,84.55
2019-03-30T22:43:13.910Z,83.42
2019-03-30T22:45:42.684Z,84.50
2019-03-30T22:48:11.491Z,84.70
2019-03-30T22:50:40.390Z,84.90
2019-03-30T22:53:09.174Z,85.30
2019-03-30T22:55:38.022Z,85.13
2019-03-30T22:58:06.868Z,85.69
2019-03-30T23:00:43.046Z,85.83
2019-03-30T23:03:12.143Z,86.10
2019-03-30T23:05:40.883Z,85.79
2019-03-30T23:08:09.668Z,85.48
2019-03-30T23:10:38.548Z,85.31
2019-03-30T23:13:07.344Z,85.42
2019-03-30T23:15:36.165Z,86.06
2019-03-30T23:18:05.059Z,86.18
2019-03-30T23:20:34.241Z,85.82
2019-03-30T23:23:02.974Z,86.09
2019-03-30T23:25:31.756Z,86.23
2019-03-30T23:28:00.549Z,86.31
2019-03-30T23:30:29.310Z,86.42
2019-03-30T23:32:58.090Z,85.94
2019-03-30T23:35:26.889Z,86.46
2019-03-30T23:37:55.739Z,86.44
2019-03-30T23:40:24.573Z,86.38
2019-03-30T23:42:53.302Z,86.82
2019-03-30T23:45:22.251Z,86.70
2019-03-30T23:47:50.997Z,86.61
2019-03-30T23:50:19.765Z,86.69
2019-03-30T23:52:48.562Z,86.61
2019-03-30T23:55:17.316Z,86.27
2019-03-30T23:57:46.251Z,86.69
